Time,TemperatureF,DewpointF,PressureIn,WindDirection,WindDirectionDegrees,WindSpeedMPH,WindSpeedGustMPH,Humidity,HourlyPrecipIn,Conditions,Clouds,dailyrainin,SoftwareType,DateUTC
2013-07-04 00:06:00,67.5,58.1,29.50,NNE,22,0.0,-999.0,72,-99.99,,,0.00,Acu-Link.com,2013-07-04 07:06:00,
2013-07-04 00:21:00,66.9,58.0,29.50,NE,45,0.0,-999.0,73,-99.99,,,0.00,Acu-Link.com,2013-07-04 07:21:00,
2013-07-04 00:36:00,66.9,58.0,29.51,ENE,67,0.0,-999.0,73,-99.99,,,0.00,Acu-Link.com,2013-07-04 07:36:00,
2013-07-04 00:51:00,66.9,58.0,29.50,West,270,0.0,-999.0,73,-99.99,,,0.00,Acu-Link.com,2013-07-04 07:51:00,
2013-07-04 01:07:00,66.7,58.1,29.50,ENE,67,0.0,-999.0,74,-99.99,,,0.00,Acu-Link.com,2013-07-04 08:07:00,
2013-07-04 01:22:00,66.6,58.4,29.49,ENE,67,0.0,-999.0,75,-99.99,,,0.00,Acu-Link.com,2013-07-04 08:22:00,
2013-07-04 01:38:00,66.7,58.9,29.50,ESE,112,0.0,-999.0,76,-99.99,,,0.00,Acu-Link.com,2013-07-04 08:38:00,
2013-07-04 01:53:00,66.4,59.3,29.49,East,90,0.0,-999.0,78,-99.99,,,0.00,Acu-Link.com,2013-07-04 08:53:00,
2013-07-04 02:08:00,65.7,59.4,29.48,West,270,1.1,-999.0,80,-99.99,,,0.00,Acu-Link.com,2013-07-04 09:08:00,
2013-07-04 02:23:00,65.1,59.1,29.48,SSW,202,0.0,-999.0,81,-99.99,,,0.00,Acu-Link.com,2013-07-04 09:23:00,
2013-07-04 02:38:00,64.8,59.2,29.48,North,0,2.7,-999.0,82,-99.99,,,0.00,Acu-Link.com,2013-07-04 09:38:00,
2013-07-04 02:53:00,64.2,57.9,29.49,West,270,1.1,-999.0,80,-99.99,,,0.00,Acu-Link.com,2013-07-04 09:53:00,
2013-07-04 03:09:00,64.4,58.1,29.49,NE,45,0.0,-999.0,80,-99.99,,,0.00,Acu-Link.com,2013-07-04 10:09:00,
2013-07-04 03:24:00,64.6,58.3,29.49,SSW,202,0.0,-999.0,80,-99.99,,,0.00,Acu-Link.com,2013-07-04 10:24:00,
2013-07-04 03:39:00,65.1,58.1,29.49,South,180,1.1,-999.0,78,-99.99,,,0.00,Acu-Link.com,2013-07-04 10:39:00,
2013-07-04 03:54:00,64.9,58.2,29.48,SSW,202,0.0,-999.0,79,-99.99,,,0.00,Acu-Link.com,2013-07-04 10:54:00,
2013-07-04 04:09:00,64.9,57.9,29.48,South,180,0.0,-999.0,78,-99.99,,,0.00,Acu-Link.com,2013-07-04 11:09:00,
2013-07-04 04:25:00,64.9,57.9,29.47,NNE,22,0.0,-999.0,78,-99.99,,,0.00,Acu-Link.com,2013-07-04 11:25:00,
2013-07-04 04:40:00,65.1,57.7,29.48,South,180,0.0,-999.0,77,-99.99,,,0.00,Acu-Link.com,2013-07-04 11:40:00,
2013-07-04 04:55:00,65.1,57.7,29.48,ESE,112,0.0,-999.0,77,-99.99,,,0.00,Acu-Link.com,2013-07-04 11:55:00,
2013-07-04 05:10:00,65.1,57.7,29.47,ESE,112,0.0,-999.0,77,-99.99,,,0.00,Acu-Link.com,2013-07-04 12:10:00,
2013-07-04 05:26:00,65.1,57.7,29.48,ENE,67,0.0,-999.0,77,-99.99,,,0.00,Acu-Link.com,2013-07-04 12:26:00,
2013-07-04 05:41:00,65.3,57.5,29.48,NE,45,0.0,-999.0,76,-99.99,,,0.00,Acu-Link.com,2013-07-04 12:41:00,
2013-07-04 05:56:00,65.3,57.9,29.48,NNE,22,0.0,-999.0,77,-99.99,,,0.00,Acu-Link.com,2013-07-04 12:56:00,
2013-07-04 06:11:00,65.3,57.2,29.48,East,90,0.0,-999.0,75,-99.99,,,0.00,Acu-Link.com,2013-07-04 13:11:00,
2013-07-04 06:26:00,65.1,57.3,29.48,SE,135,0.0,-999.0,76,-99.99,,,0.00,Acu-Link.com,2013-07-04 13:26:00,
2013-07-04 06:42:00,65.3,57.5,29.48,ENE,67,0.0,-999.0,76,-99.99,,,0.00,Acu-Link.com,2013-07-04 13:42:00,
2013-07-04 06:57:00,65.3,57.5,29.48,NNE,22,1.7,-999.0,76,-99.99,,,0.00,Acu-Link.com,2013-07-04 13:57:00,
2013-07-04 07:12:00,65.5,57.4,29.50,South,180,0.0,-999.0,75,-99.99,,,0.00,Acu-Link.com,2013-07-04 14:12:00,
2013-07-04 07:27:00,65.8,57.6,29.49,NE,45,0.0,-999.0,75,-99.99,,,0.00,Acu-Link.com,2013-07-04 14:27:00,
2013-07-04 07:42:00,66.6,58.4,29.49,SE,135,0.0,-999.0,75,-99.99,,,0.00,Acu-Link.com,2013-07-04 14:42:00,
2013-07-04 07:58:00,67.5,58.5,29.49,SSW,202,0.0,-999.0,73,-99.99,,,0.00,Acu-Link.com,2013-07-04 14:58:00,
2013-07-04 08:13:00,68.7,58.9,29.50,WSW,247,0.0,-999.0,71,-99.99,,,0.00,Acu-Link.com,2013-07-04 15:13:00,
2013-07-04 08:28:00,69.6,59.0,29.49,NE,45,2.2,-999.0,69,-99.99,,,0.00,Acu-Link.com,2013-07-04 15:28:00,
2013-07-04 08:43:00,70.3,58.4,29.50,NNW,337,2.2,-999.0,66,-99.99,,,0.00,Acu-Link.com,2013-07-04 15:43:00,
2013-07-04 08:58:00,72.0,59.1,29.50,SW,225,1.7,-999.0,64,-99.99,,,0.00,Acu-Link.com,2013-07-04 15:58:00,
2013-07-04 09:14:00,74.7,59.4,29.49,NNE,22,2.2,-999.0,59,-99.99,,,0.00,Acu-Link.com,2013-07-04 16:14:00,
2013-07-04 09:29:00,76.6,60.2,29.50,SSW,202,0.0,-999.0,57,-99.99,,,0.00,Acu-Link.com,2013-07-04 16:29:00,
2013-07-04 09:44:00,78.8,60.7,29.49,North,0,0.0,-999.0,54,-99.99,,,0.00,Acu-Link.com,2013-07-04 16:44:00,
2013-07-04 09:59:00,80.6,60.8,29.49,SW,225,0.0,-999.0,51,-99.99,,,0.00,Acu-Link.com,2013-07-04 16:59:00,
2013-07-04 10:14:00,81.0,61.1,29.49,West,270,1.7,-999.0,51,-99.99,,,0.00,Acu-Link.com,2013-07-04 17:14:00,
2013-07-04 10:30:00,80.8,61.5,29.48,West,270,0.0,-999.0,52,-99.99,,,0.00,Acu-Link.com,2013-07-04 17:30:00,
2013-07-04 10:45:00,79.9,61.7,29.49,SSW,202,1.1,-999.0,54,-99.99,,,0.00,Acu-Link.com,2013-07-04 17:45:00,
2013-07-04 11:00:00,78.3,60.3,29.49,SSW,202,4.2,-999.0,54,-99.99,,,0.00,Acu-Link.com,2013-07-04 18:00:00,
2013-07-04 11:15:00,79.9,60.7,29.50,SSE,157,2.7,-999.0,52,-99.99,,,0.00,Acu-Link.com,2013-07-04 18:15:00,
2013-07-04 11:31:00,81.3,61.4,29.49,South,180,2.7,-999.0,51,-99.99,,,0.00,Acu-Link.com,2013-07-04 18:31:00,
2013-07-04 11:46:00,81.5,61.0,29.49,SW,225,2.2,-999.0,50,-99.99,,,0.00,Acu-Link.com,2013-07-04 18:46:00,
2013-07-04 12:01:00,82.8,61.1,29.47,West,270,3.7,-999.0,48,-99.99,,,0.00,Acu-Link.com,2013-07-04 19:01:00,
2013-07-04 12:16:00,84.7,61.6,29.49,SW,225,2.7,-999.0,46,-99.99,,,0.00,Acu-Link.com,2013-07-04 19:16:00,
2013-07-04 12:31:00,85.3,61.5,29.47,SSE,157,2.7,-999.0,45,-99.99,,,0.00,Acu-Link.com,2013-07-04 19:31:00,
2013-07-04 12:47:00,85.3,60.9,29.46,South,180,2.7,-999.0,44,-99.99,,,0.00,Acu-Link.com,2013-07-04 19:47:00,
2013-07-04 13:02:00,86.4,61.2,29.46,South,180,2.7,-999.0,43,-99.99,,,0.00,Acu-Link.com,2013-07-04 20:02:00,
2013-07-04 13:17:00,85.6,60.5,29.46,SW,225,2.7,-999.0,43,-99.99,,,0.00,Acu-Link.com,2013-07-04 20:17:00,
2013-07-04 13:33:00,89.4,62.6,29.44,ESE,112,1.7,-999.0,41,-99.99,,,0.00,Acu-Link.com,2013-07-04 20:33:00,
2013-07-04 13:48:00,86.9,61.0,29.44,SW,225,3.7,-999.0,42,-99.99,,,0.00,Acu-Link.com,2013-07-04 20:48:00,
2013-07-04 14:03:00,88.9,61.4,29.44,West,270,1.1,-999.0,40,-99.99,,,0.00,Acu-Link.com,2013-07-04 21:03:00,
2013-07-04 14:18:00,87.8,61.1,29.43,South,180,3.7,-999.0,41,-99.99,,,0.00,Acu-Link.com,2013-07-04 21:18:00,
2013-07-04 14:33:00,88.5,61.1,29.43,SSW,202,2.7,-999.0,40,-99.99,,,0.00,Acu-Link.com,2013-07-04 21:33:00,
2013-07-04 14:49:00,89.1,60.9,29.42,SW,225,3.2,-999.0,39,-99.99,,,0.00,Acu-Link.com,2013-07-04 21:49:00,
2013-07-04 15:04:00,89.2,61.0,29.42,WSW,247,2.2,-999.0,39,-99.99,,,0.00,Acu-Link.com,2013-07-04 22:04:00,
2013-07-04 15:19:00,93.6,61.8,29.41,NE,45,2.2,-999.0,35,-99.99,,,0.00,Acu-Link.com,2013-07-04 22:19:00,
2013-07-04 15:34:00,93.7,61.9,29.38,NE,45,2.2,-999.0,35,-99.99,,,0.00,Acu-Link.com,2013-07-04 22:34:00,
2013-07-04 15:49:00,94.8,60.3,29.38,WSW,247,5.3,-999.0,32,-99.99,,,0.00,Acu-Link.com,2013-07-04 22:49:00,
2013-07-04 16:05:00,94.8,58.5,29.39,SSE,157,3.2,-999.0,30,-99.99,,,0.00,Acu-Link.com,2013-07-04 23:05:00,
2013-07-04 16:20:00,97.0,56.4,29.38,WNW,292,8.3,-999.0,26,-99.99,,,0.00,Acu-Link.com,2013-07-04 23:20:00,
2013-07-04 16:35:00,96.3,55.8,29.39,WNW,292,4.7,-999.0,26,-99.99,,,0.00,Acu-Link.com,2013-07-04 23:35:00,
2013-07-04 16:50:00,95.4,53.9,29.38,WSW,247,10.9,-999.0,25,-99.99,,,0.00,Acu-Link.com,2013-07-04 23:50:00,
2013-07-04 17:05:00,92.8,51.8,29.37,WSW,247,9.4,-999.0,25,-99.99,,,0.00,Acu-Link.com,2013-07-05 00:05:00,
2013-07-04 17:21:00,91.8,50.9,29.37,NW,315,6.8,-999.0,25,-99.99,,,0.00,Acu-Link.com,2013-07-05 00:21:00,
2013-07-04 17:36:00,91.0,51.3,29.37,SSW,202,14.5,-999.0,26,-99.99,,,0.00,Acu-Link.com,2013-07-05 00:36:00,
2013-07-04 17:51:00,91.2,51.5,29.37,ENE,67,7.3,-999.0,26,-99.99,,,0.00,Acu-Link.com,2013-07-05 00:51:00,
2013-07-04 18:06:00,88.5,51.2,29.37,NNE,22,7.3,-999.0,28,-99.99,,,0.00,Acu-Link.com,2013-07-05 01:06:00,
2013-07-04 18:22:00,89.1,51.7,29.37,WSW,247,7.8,-999.0,28,-99.99,,,0.00,Acu-Link.com,2013-07-05 01:22:00,
2013-07-04 18:37:00,89.1,51.7,29.36,SW,225,6.8,-999.0,28,-99.99,,,0.00,Acu-Link.com,2013-07-05 01:37:00,
2013-07-04 18:52:00,88.9,51.5,29.36,WNW,292,4.7,-999.0,28,-99.99,,,0.00,Acu-Link.com,2013-07-05 01:52:00,
2013-07-04 19:07:00,88.0,50.8,29.37,WSW,247,7.3,-999.0,28,-99.99,,,0.00,Acu-Link.com,2013-07-05 02:07:00,
2013-07-04 19:22:00,87.4,49.3,29.38,West,270,5.8,-999.0,27,-99.99,,,0.00,Acu-Link.com,2013-07-05 02:22:00,
2013-07-04 19:38:00,86.0,48.1,29.38,WNW,292,4.7,-999.0,27,-99.99,,,0.00,Acu-Link.com,2013-07-05 02:38:00,
2013-07-04 19:53:00,86.5,48.5,29.38,NNW,337,6.3,-999.0,27,-99.99,,,0.00,Acu-Link.com,2013-07-05 02:53:00,
2013-07-04 20:08:00,83.8,47.2,29.39,SSW,202,4.7,-999.0,28,-99.99,,,0.00,Acu-Link.com,2013-07-05 03:08:00,
2013-07-04 20:23:00,81.5,46.2,29.38,West,270,5.3,-999.0,29,-99.99,,,0.00,Acu-Link.com,2013-07-05 03:23:00,
2013-07-04 20:38:00,80.2,45.9,29.38,WNW,292,9.4,-999.0,30,-99.99,,,0.00,Acu-Link.com,2013-07-05 03:38:00,
2013-07-04 20:54:00,79.7,45.5,29.40,SW,225,5.8,-999.0,30,-99.99,,,0.00,Acu-Link.com,2013-07-05 03:54:00,
2013-07-04 21:09:00,79.5,45.3,29.40,WNW,292,4.7,-999.0,30,-99.99,,,0.00,Acu-Link.com,2013-07-05 04:09:00,
2013-07-04 21:24:00,78.6,44.6,29.40,North,0,5.3,-999.0,30,-99.99,,,0.00,Acu-Link.com,2013-07-05 04:24:00,
2013-07-04 21:39:00,77.2,45.0,29.40,NW,315,2.7,-999.0,32,-99.99,,,0.00,Acu-Link.com,2013-07-05 04:39:00,
2013-07-04 21:54:00,76.1,44.1,29.41,WSW,247,5.3,-999.0,32,-99.99,,,0.00,Acu-Link.com,2013-07-05 04:54:00,
2013-07-04 22:10:00,75.7,43.7,29.42,NW,315,4.2,-999.0,32,-99.99,,,0.00,Acu-Link.com,2013-07-05 05:10:00,
2013-07-04 22:25:00,75.4,43.5,29.43,WNW,292,5.3,-999.0,32,-99.99,,,0.00,Acu-Link.com,2013-07-05 05:25:00,
2013-07-04 22:40:00,74.5,44.3,29.42,West,270,7.8,-999.0,34,-99.99,,,0.00,Acu-Link.com,2013-07-05 05:40:00,
2013-07-04 22:55:00,74.3,44.1,29.43,WSW,247,4.2,-999.0,34,-99.99,,,0.00,Acu-Link.com,2013-07-05 05:55:00,
2013-07-04 23:11:00,74.1,44.7,29.42,SSE,157,3.2,-999.0,35,-99.99,,,0.00,Acu-Link.com,2013-07-05 06:11:00,
2013-07-04 23:26:00,73.0,44.5,29.43,NNW,337,4.2,-999.0,36,-99.99,,,0.00,Acu-Link.com,2013-07-05 06:26:00,
2013-07-04 23:41:00,72.1,44.4,29.44,South,180,2.7,-999.0,37,-99.99,,,0.00,Acu-Link.com,2013-07-05 06:41:00,
2013-07-04 23:56:00,71.6,43.9,29.43,ENE,67,0.0,-999.0,37,-99.99,,,0.00,Acu-Link.com,2013-07-05 06:56:00,